Time;durP1;ratioP1;P1;durP2;ratioP2;P2;SDS_P1;SDS_P2;PMS_P1;PMS_P2;Temp;Humidity;BMP_temperature;BMP_pressure;BME280_temperature;BME280_humidity;BME280_pressure;Samples;Min_cycle;Max_cycle;Signal;HPM_P1;HPM_P2
2023/05/27 00:01:36;;;;;;;0.10;0.10;;;;;;;14.76;nan;101333.63;5017748;28;20045;-82
2023/05/27 00:04:02;;;;;;;0.10;0.10;;;;;;;14.80;nan;101332.31;5024571;28;20076;-82
2023/05/27 00:06:27;;;;;;;0.10;0.10;;;;;;;14.89;nan;101335.84;5041182;28;20490;-84
2023/05/27 00:08:52;;;;;;;0.10;0.10;;;;;;;14.97;nan;101337.69;5029195;28;20065;-83
2023/05/27 00:11:18;;;;;;;0.10;0.10;;;;;;;14.96;nan;101331.53;5031674;28;20087;-83
2023/05/27 00:13:43;;;;;;;0.10;0.10;;;;;;;14.91;nan;101331.19;5027919;28;20037;-82
2023/05/27 00:16:08;;;;;;;0.10;0.10;;;;;;;14.93;nan;101331.88;5042878;28;20029;-82
2023/05/27 00:18:35;;;;;;;0.10;0.10;;;;;;;14.95;nan;101331.72;5027030;28;20489;-84
2023/05/27 00:21:01;;;;;;;0.10;0.10;;;;;;;14.92;nan;101330.22;5021097;28;20032;-83
2023/05/27 00:23:26;;;;;;;0.10;0.10;;;;;;;14.98;nan;101336.72;5028735;28;20026;-83
2023/05/27 00:25:51;;;;;;;0.10;0.10;;;;;;;15.00;nan;101326.75;5045113;28;20061;-82
2023/05/27 00:28:16;;;;;;;0.13;0.13;;;;;;;14.94;nan;101330.84;5026285;28;20031;-81
2023/05/27 00:30:42;;;;;;;0.10;0.10;;;;;;;14.92;nan;101326.69;5018492;28;20325;-82
2023/05/27 00:33:07;;;;;;;0.10;0.10;;;;;;;14.86;nan;101325.50;5041555;28;20041;-83
2023/05/27 00:35:32;;;;;;;0.10;0.10;;;;;;;14.85;nan;101331.84;5019257;28;20049;-81
2023/05/27 00:37:57;;;;;;;0.10;0.10;;;;;;;14.75;nan;101331.13;5042378;28;20533;-83
2023/05/27 00:40:24;;;;;;;0.10;0.10;;;;;;;14.67;nan;101331.09;5020086;28;20147;-82
2023/05/27 00:42:50;;;;;;;0.20;0.20;;;;;;;14.56;nan;101345.50;5042464;28;20402;-83
2023/05/27 00:45:15;;;;;;;0.10;0.10;;;;;;;14.53;nan;101343.13;5021969;28;20030;-82
2023/05/27 00:47:41;;;;;;;0.10;0.10;;;;;;;14.54;nan;101345.66;5015290;28;20299;-82
2023/05/27 00:50:07;;;;;;;0.10;0.10;;;;;;;14.51;nan;101345.94;5014709;28;20484;-83
2023/05/27 00:52:33;;;;;;;0.10;0.10;;;;;;;14.41;nan;101342.56;5023461;28;20039;-82
2023/05/27 00:54:59;;;;;;;0.10;0.10;;;;;;;14.43;nan;101338.75;5017442;28;20029;-82
2023/05/27 00:57:25;;;;;;;0.10;0.10;;;;;;;14.40;nan;101340.91;5018695;28;20045;-82
2023/05/27 00:59:51;;;;;;;0.10;0.10;;;;;;;14.32;nan;101340.81;5016433;28;20045;-81
2023/05/27 01:02:16;;;;;;;0.10;0.10;;;;;;;14.30;nan;101335.69;5011978;28;20037;-81
2023/05/27 01:04:42;;;;;;;0.10;0.10;;;;;;;14.31;nan;101326.69;5022824;28;20528;-82
2023/05/27 01:07:26;;;;;;;0.20;0.20;;;;;;;14.31;nan;101345.31;5022000;28;20048;-83
2023/05/27 01:10:03;;;;;;;0.10;0.10;;;;;;;14.29;nan;101333.16;5018764;28;20026;-82
2023/05/27 01:12:37;;;;;;;0.10;0.10;;;;;;;14.29;nan;101330.50;5025524;28;20057;-83
2023/05/27 01:15:05;;;;;;;0.10;0.10;;;;;;;14.27;nan;101327.16;5023465;28;20033;-82
2023/05/27 01:17:31;;;;;;;0.20;0.20;;;;;;;14.26;nan;101336.97;5035268;28;20034;-82
2023/05/27 01:19:59;;;;;;;0.10;0.10;;;;;;;14.23;nan;101324.81;5035200;28;20029;-82
2023/05/27 01:22:29;;;;;;;0.10;0.10;;;;;;;14.22;nan;101324.97;5023571;28;20029;-82
2023/05/27 01:24:55;;;;;;;0.15;0.15;;;;;;;14.15;nan;101324.75;5018173;28;20043;-83
2023/05/27 01:27:24;;;;;;;0.10;0.10;;;;;;;14.10;nan;101321.72;5025152;28;20468;-82
2023/05/27 01:29:50;;;;;;;0.10;0.10;;;;;;;14.08;nan;101321.03;5024890;28;20269;-82
2023/05/27 01:32:27;;;;;;;0.10;0.10;;;;;;;14.07;nan;101321.22;5016584;28;20072;-82
2023/05/27 01:35:04;;;;;;;0.10;0.10;;;;;;;14.05;nan;101320.53;5025930;28;20041;-83
2023/05/27 01:37:33;;;;;;;0.10;0.10;;;;;;;14.00;nan;101319.16;5040782;28;20030;-82
2023/05/27 01:39:59;;;;;;;0.10;0.10;;;;;;;14.07;nan;101315.91;5025404;28;20037;-84
2023/05/27 01:42:25;;;;;;;0.10;0.10;;;;;;;14.16;nan;101314.97;5024287;28;20075;-81
2023/05/27 01:44:51;;;;;;;0.10;0.10;;;;;;;14.12;nan;101316.25;5027450;28;20045;-82
2023/05/27 01:47:16;;;;;;;0.10;0.10;;;;;;;14.05;nan;101307.22;5030899;28;20587;-82
2023/05/27 01:49:42;;;;;;;0.10;0.10;;;;;;;14.01;nan;101317.34;5026366;28;20041;-82
2023/05/27 01:52:08;;;;;;;0.20;0.20;;;;;;;13.94;nan;101314.47;5039283;28;20044;-83
2023/05/27 01:54:34;;;;;;;0.13;0.13;;;;;;;13.85;nan;101323.38;5026085;28;20039;-83
2023/05/27 01:56:59;;;;;;;0.10;0.10;;;;;;;13.78;nan;101320.50;5019397;28;20037;-84
2023/05/27 01:59:25;;;;;;;0.10;0.10;;;;;;;13.65;nan;101313.88;5023296;28;20029;-82
2023/05/27 02:01:51;;;;;;;0.20;0.20;;;;;;;13.62;nan;101315.03;5023354;28;20076;-82
2023/05/27 02:04:17;;;;;;;0.10;0.10;;;;;;;13.59;nan;101312.69;5023415;28;20049;-82
2023/05/27 02:06:42;;;;;;;0.17;0.17;;;;;;;13.52;nan;101316.94;5024321;28;20037;-82
2023/05/27 02:09:07;;;;;;;0.10;0.10;;;;;;;13.48;nan;101313.72;5024765;28;20085;-82
2023/05/27 02:11:33;;;;;;;0.20;0.20;;;;;;;13.47;nan;101319.22;5023697;28;20049;-82
2023/05/27 02:13:59;;;;;;;0.10;0.10;;;;;;;13.43;nan;101318.66;5023629;28;20037;-82
2023/05/27 02:16:24;;;;;;;0.10;0.10;;;;;;;13.32;nan;101314.44;5041860;28;20040;-82
2023/05/27 02:18:50;;;;;;;0.10;0.10;;;;;;;13.21;nan;101313.78;5042098;28;20041;-82
2023/05/27 02:21:15;;;;;;;0.10;0.10;;;;;;;13.15;nan;101304.56;5024126;28;20042;-82
2023/05/27 02:23:40;;;;;;;0.20;0.20;;;;;;;13.14;nan;101305.56;5024769;28;20040;-82
2023/05/27 02:26:06;;;;;;;0.20;0.20;;;;;;;13.21;nan;101311.13;5043324;28;20037;-83
2023/05/27 02:28:31;;;;;;;0.10;0.10;;;;;;;13.22;nan;101310.94;5051718;28;20049;-83
2023/05/27 02:30:58;;;;;;;0.10;0.10;;;;;;;13.32;nan;101306.44;5028804;28;20038;-83
2023/05/27 02:33:23;;;;;;;0.10;0.10;;;;;;;13.50;nan;101297.66;5016447;28;20045;-81
2023/05/27 02:35:48;;;;;;;0.10;0.10;;;;;;;13.56;nan;101292.56;5027474;28;20041;-84
2023/05/27 02:38:13;;;;;;;0.10;0.10;;;;;;;13.57;nan;101296.06;5013411;28;20033;-82
2023/05/27 02:40:39;;;;;;;0.10;0.10;;;;;;;13.59;nan;101291.44;5013836;28;20441;-82
2023/05/27 02:43:05;;;;;;;0.10;0.10;;;;;;;13.65;nan;101300.59;5014473;28;20048;-83
2023/05/27 02:45:30;;;;;;;0.10;0.10;;;;;;;13.62;nan;101293.75;5014557;28;20041;-81
2023/05/27 02:47:56;;;;;;;0.20;0.20;;;;;;;13.68;nan;101290.50;5032954;28;20090;-82
2023/05/27 02:50:21;;;;;;;0.20;0.20;;;;;;;13.66;nan;101291.63;5028177;28;20029;-82
2023/05/27 02:52:47;;;;;;;0.10;0.10;;;;;;;13.68;nan;101290.50;5030924;28;20038;-83
2023/05/27 02:55:12;;;;;;;0.20;0.20;;;;;;;13.72;nan;101291.84;5034857;28;20109;-82
2023/05/27 02:57:38;;;;;;;0.20;0.20;;;;;;;13.73;nan;101290.03;5018321;28;20089;-83
2023/05/27 03:00:04;;;;;;;0.10;0.10;;;;;;;13.70;nan;101295.66;5032876;28;20035;-81
2023/05/27 03:02:30;;;;;;;0.10;0.10;;;;;;;13.71;nan;101292.84;5038236;28;20124;-83
2023/05/27 03:04:55;;;;;;;0.20;0.20;;;;;;;13.72;nan;101294.50;5013145;28;20109;-82
2023/05/27 03:07:21;;;;;;;0.20;0.20;;;;;;;13.74;nan;101297.03;5017177;28;20034;-82
2023/05/27 03:09:46;;;;;;;0.20;0.20;;;;;;;13.67;nan;101283.50;5013989;28;20454;-85
2023/05/27 03:12:11;;;;;;;0.10;0.10;;;;;;;13.57;nan;101291.56;5030027;28;20033;-82
2023/05/27 03:14:37;;;;;;;0.20;0.20;;;;;;;13.48;nan;101294.31;5014253;28;20041;-83
2023/05/27 03:17:02;;;;;;;0.10;0.10;;;;;;;13.53;nan;101289.38;5029360;28;20041;-83
2023/05/27 03:19:27;;;;;;;0.20;0.20;;;;;;;13.62;nan;101282.31;5015146;28;20036;-82
2023/05/27 03:21:52;;;;;;;0.10;0.10;;;;;;;13.73;nan;101290.88;5016757;28;20033;-83
2023/05/27 03:24:18;;;;;;;0.10;0.10;;;;;;;13.66;nan;101284.50;5019306;28;20184;-81
2023/05/27 03:26:43;;;;;;;0.20;0.20;;;;;;;13.64;nan;101289.13;5029876;28;20128;-82
2023/05/27 03:29:08;;;;;;;0.20;0.20;;;;;;;13.56;nan;101287.25;5015114;28;20514;-83
2023/05/27 03:31:34;;;;;;;0.10;0.10;;;;;;;13.46;nan;101285.66;5015338;28;20033;-82
2023/05/27 03:33:59;;;;;;;0.10;0.10;;;;;;;13.45;nan;101286.66;5015074;28;20144;-82
2023/05/27 03:36:24;;;;;;;0.10;0.10;;;;;;;13.50;nan;101290.50;5035410;28;20033;-82
2023/05/27 03:38:50;;;;;;;0.20;0.20;;;;;;;13.45;nan;101289.31;5035394;28;20104;-82
2023/05/27 03:41:15;;;;;;;0.10;0.10;;;;;;;13.39;nan;101288.06;5035863;28;20045;-82
2023/05/27 03:43:41;;;;;;;0.10;0.10;;;;;;;13.29;nan;101293.44;5033633;28;20350;-83
2023/05/27 03:46:07;;;;;;;0.10;0.10;;;;;;;13.15;nan;101289.47;5030655;28;20079;-83
2023/05/27 03:48:32;;;;;;;0.20;0.20;;;;;;;13.06;nan;101287.72;5014252;28;20117;-83
2023/05/27 03:50:58;;;;;;;0.20;0.20;;;;;;;13.04;nan;101289.69;5013409;28;20064;-83
2023/05/27 03:53:23;;;;;;;0.20;0.20;;;;;;;12.93;nan;101290.72;5031707;28;20029;-82
2023/05/27 03:55:48;;;;;;;0.10;0.10;;;;;;;12.92;nan;101293.53;5021165;28;20128;-82
2023/05/27 03:58:14;;;;;;;0.20;0.20;;;;;;;12.94;nan;101292.41;5033102;28;20036;-82
2023/05/27 04:00:41;;;;;;;0.10;0.10;;;;;;;12.90;nan;101293.69;5037887;28;20047;-82
2023/05/27 04:03:06;;;;;;;0.17;0.17;;;;;;;12.85;nan;101295.13;5024949;28;20056;-83
2023/05/27 04:05:32;;;;;;;0.10;0.10;;;;;;;12.87;nan;101293.13;5043640;28;20037;-82
2023/05/27 04:07:57;;;;;;;0.13;0.13;;;;;;;12.89;nan;101294.63;5035384;28;20082;-81
2023/05/27 04:10:23;;;;;;;0.20;0.20;;;;;;;12.85;nan;101287.16;5018264;28;20281;-81
2023/05/27 04:12:48;;;;;;;0.20;0.20;;;;;;;12.79;nan;101290.38;5023271;28;20035;-82
2023/05/27 04:15:13;;;;;;;0.10;0.10;;;;;;;12.74;nan;101282.84;5027045;28;20470;-82
2023/05/27 04:17:39;;;;;;;0.20;0.20;;;;;;;12.85;nan;101287.97;5042128;28;20057;-82
2023/05/27 04:20:13;;;;;;;0.20;0.20;;;;;;;12.91;nan;101287.38;5022514;28;20053;-81
2023/05/27 04:22:40;;;;;;;0.10;0.10;;;;;;;13.03;nan;101295.97;5047932;28;20124;-83
2023/05/27 04:25:05;;;;;;;0.20;0.20;;;;;;;13.16;nan;101299.09;5022632;28;20044;-84
2023/05/27 04:27:31;;;;;;;0.10;0.10;;;;;;;13.20;nan;101296.16;5046378;28;20065;-82
2023/05/27 04:29:56;;;;;;;0.20;0.20;;;;;;;13.30;nan;101297.78;5019257;28;20622;-83
2023/05/27 04:32:21;;;;;;;0.10;0.10;;;;;;;13.36;nan;101294.53;5015422;28;20038;-83
2023/05/27 04:34:47;;;;;;;0.20;0.20;;;;;;;13.45;nan;101291.97;5015615;28;20754;-83
2023/05/27 04:37:12;;;;;;;0.20;0.20;;;;;;;13.42;nan;101290.44;5032766;28;20049;-83
2023/05/27 04:39:45;;;;;;;0.13;0.13;;;;;;;13.51;nan;101289.50;5040400;28;20083;-83
2023/05/27 04:42:10;;;;;;;0.10;0.10;;;;;;;13.55;nan;101298.03;5029340;28;20033;-83
2023/05/27 04:44:35;;;;;;;0.20;0.20;;;;;;;13.56;nan;101303.19;5009852;28;20387;-83
2023/05/27 04:47:01;;;;;;;0.20;0.20;;;;;;;13.59;nan;101300.22;5039077;28;20048;-81
2023/05/27 04:49:26;;;;;;;0.10;0.10;;;;;;;13.59;nan;101300.22;5030133;28;20091;-81
2023/05/27 04:51:51;;;;;;;0.10;0.10;;;;;;;13.69;nan;101294.81;5027408;28;20038;-81
2023/05/27 04:54:17;;;;;;;0.10;0.10;;;;;;;13.79;nan;101295.56;5043800;28;20049;-81
2023/05/27 04:56:43;;;;;;;0.13;0.13;;;;;;;13.86;nan;101292.31;5036497;28;20068;-81
2023/05/27 04:59:16;;;;;;;0.10;0.10;;;;;;;13.85;nan;101294.13;5040871;28;20025;-82
2023/05/27 05:01:59;;;;;;;0.10;0.10;;;;;;;13.93;nan;101294.19;5023999;28;20140;-81
2023/05/27 05:04:24;;;;;;;0.10;0.10;;;;;;;13.95;nan;101286.88;5033121;28;20524;-82
2023/05/27 05:06:50;;;;;;;0.10;0.10;;;;;;;14.01;nan;101291.59;5024856;28;20041;-82
2023/05/27 05:09:16;;;;;;;0.10;0.10;;;;;;;14.07;nan;101290.13;5037125;28;20498;-81
2023/05/27 05:11:41;;;;;;;0.20;0.20;;;;;;;14.14;nan;101291.19;5041724;28;20049;-81
2023/05/27 05:14:06;;;;;;;0.10;0.10;;;;;;;14.19;nan;101280.91;5042978;28;20054;-81
2023/05/27 05:16:31;;;;;;;0.10;0.10;;;;;;;14.34;nan;101290.97;5041171;28;20037;-81
2023/05/27 05:18:57;;;;;;;0.10;0.10;;;;;;;14.41;nan;101284.84;5044619;28;20033;-81
2023/05/27 05:21:22;;;;;;;0.10;0.10;;;;;;;14.54;nan;101289.78;5021930;28;20025;-81
2023/05/27 05:23:47;;;;;;;0.10;0.10;;;;;;;14.59;nan;101286.66;5026413;28;20409;-82
2023/05/27 05:26:13;;;;;;;0.10;0.10;;;;;;;14.69;nan;101291.84;5047360;28;20132;-82
2023/05/27 05:28:38;;;;;;;0.10;0.10;;;;;;;14.72;nan;101284.34;5050692;28;20569;-82
2023/05/27 05:31:03;;;;;;;0.10;0.10;;;;;;;14.87;nan;101292.56;5049719;28;20044;-81
2023/05/27 05:33:29;;;;;;;0.10;0.10;;;;;;;15.01;nan;101297.25;5028903;28;20034;-82
2023/05/27 05:35:55;;;;;;;0.10;0.10;;;;;;;15.03;nan;101292.59;5047972;28;20719;-82
2023/05/27 05:38:20;;;;;;;0.10;0.10;;;;;;;15.10;nan;101298.13;5032482;28;20026;-82
2023/05/27 05:40:49;;;;;;;0.10;0.10;;;;;;;15.26;nan;101295.50;5026753;28;20047;-82
2023/05/27 05:43:15;;;;;;;0.10;0.10;;;;;;;15.66;nan;101293.88;5047955;28;20271;-82
2023/05/27 05:45:40;;;;;;;0.10;0.10;;;;;;;16.05;nan;101300.41;5046728;28;20044;-82
2023/05/27 05:48:05;;;;;;;0.10;0.10;;;;;;;16.38;nan;101298.50;5035449;28;20057;-82
2023/05/27 05:50:32;;;;;;;0.10;0.10;;;;;;;16.65;nan;101299.09;5036109;28;20048;-82
2023/05/27 05:52:57;;;;;;;0.10;0.10;;;;;;;16.94;nan;101298.47;5023070;28;21643;-83
2023/05/27 05:55:23;;;;;;;0.10;0.10;;;;;;;17.32;nan;101302.09;5015069;28;20405;-83
2023/05/27 05:57:48;;;;;;;;;;;;;;;17.45;nan;101304.19;5015974;28;20582;-82
2023/05/27 06:00:14;;;;;;;;;;;;;;;17.67;nan;101302.53;5003604;28;20301;-83
2023/05/27 06:02:39;;;;;;;;;;;;;;;17.91;nan;101306.88;5025096;28;19913;-83
2023/05/27 06:05:05;;;;;;;;;;;;;;;18.19;nan;101315.13;5034656;28;19963;-83
2023/05/27 06:07:30;;;;;;;;;;;;;;;18.38;nan;101315.63;5041076;28;20423;-83
2023/05/27 06:09:55;;;;;;;;;;;;;;;18.70;nan;101314.41;5034214;28;20573;-83
2023/05/27 06:12:20;;;;;;;;;;;;;;;19.15;nan;101319.75;5031805;28;19913;-82
2023/05/27 06:14:46;;;;;;;;;;;;;;;19.18;nan;101316.66;5022359;28;20377;-83
2023/05/27 06:17:12;;;;;;;;;;;;;;;19.49;nan;101311.84;5014285;28;19913;-83
2023/05/27 06:19:37;;;;;;;;;;;;;;;19.57;nan;101313.59;5039748;28;19930;-81
2023/05/27 06:22:05;;;;;;;;;;;;;;;19.65;nan;101310.75;5013878;28;19913;-83
2023/05/27 06:24:31;;;;;;;;;;;;;;;20.11;nan;101306.81;5039321;28;19924;-81
2023/05/27 06:26:56;;;;;;;;;;;;;;;20.32;nan;101305.94;5032286;28;19913;-80
2023/05/27 06:29:21;;;;;;;0.10;0.10;;;;;;;20.75;nan;101305.78;5032052;28;19987;-82
2023/05/27 06:31:48;;;;;;;0.10;0.10;;;;;;;21.00;nan;101306.94;5031331;28;20438;-81
2023/05/27 06:34:13;;;;;;;0.00;0.00;;;;;;;20.75;nan;101308.47;5014127;28;20108;-83
2023/05/27 06:36:38;;;;;;;0.00;0.00;;;;;;;21.06;nan;101301.78;5036089;28;20030;-80
2023/05/27 06:39:04;;;;;;;0.00;0.00;;;;;;;21.32;nan;101304.53;5035698;28;20041;-81
2023/05/27 06:41:29;;;;;;;0.00;0.00;;;;;;;21.57;nan;101304.81;5035376;28;20113;-80
2023/05/27 06:43:54;;;;;;;0.00;0.00;;;;;;;21.97;nan;101293.22;5043565;28;20033;-81
2023/05/27 06:46:20;;;;;;;0.00;0.00;;;;;;;21.72;nan;101290.34;5033304;28;20430;-83
2023/05/27 06:48:45;;;;;;;0.10;0.10;;;;;;;21.90;nan;101287.00;5016203;28;20033;-82
2023/05/27 06:51:10;;;;;;;0.00;0.00;;;;;;;21.84;nan;101291.38;5015929;28;20037;-81
2023/05/27 06:53:35;;;;;;;0.00;0.00;;;;;;;21.91;nan;101292.19;5023196;28;20854;-81
2023/05/27 06:56:01;;;;;;;0.10;0.10;;;;;;;21.83;nan;101293.22;5015291;28;20041;-81
2023/05/27 06:58:26;;;;;;;0.00;0.00;;;;;;;22.41;nan;101286.34;5034445;28;20033;-80
2023/05/27 07:00:51;;;;;;;0.05;0.05;;;;;;;22.50;nan;101293.16;5034635;28;20514;-80
2023/05/27 07:03:17;;;;;;;0.00;0.00;;;;;;;22.26;nan;101291.94;5031777;28;20038;-80
2023/05/27 07:05:42;;;;;;;0.00;0.00;;;;;;;21.95;nan;101288.06;5040661;28;20041;-80
2023/05/27 07:08:07;;;;;;;0.00;0.00;;;;;;;21.91;nan;101285.97;5033210;28;20280;-81
2023/05/27 07:10:32;;;;;;;0.00;0.00;;;;;;;22.22;nan;101294.25;5011248;28;20036;-81
2023/05/27 07:12:58;;;;;;;0.00;0.00;;;;;;;22.66;nan;101297.22;5011083;28;20045;-81
2023/05/27 07:15:25;;;;;;;0.00;0.00;;;;;;;22.67;nan;101286.25;5007754;28;20069;-81
2023/05/27 07:17:50;;;;;;;0.00;0.00;;;;;;;22.66;nan;101291.84;5027588;28;20040;-80
2023/05/27 07:20:16;;;;;;;0.00;0.00;;;;;;;22.85;nan;101284.72;5009802;28;20338;-81
2023/05/27 07:22:41;;;;;;;0.00;0.00;;;;;;;23.13;nan;101280.88;5010424;28;20116;-81
2023/05/27 07:25:07;;;;;;;0.00;0.00;;;;;;;23.32;nan;101286.13;5011594;28;20044;-81
2023/05/27 07:27:32;;;;;;;0.00;0.00;;;;;;;23.45;nan;101274.41;5011226;28;20689;-81
2023/05/27 07:29:57;;;;;;;0.00;0.00;;;;;;;23.64;nan;101279.88;5026245;28;20045;-81
2023/05/27 07:32:23;;;;;;;0.00;0.00;;;;;;;23.66;nan;101283.19;5027791;28;20045;-81
2023/05/27 07:34:48;;;;;;;0.00;0.00;;;;;;;23.38;nan;101273.63;5037488;28;20049;-81
2023/05/27 07:37:13;;;;;;;0.00;0.00;;;;;;;23.39;nan;101275.31;5012690;28;20036;-81
2023/05/27 07:39:39;;;;;;;0.00;0.00;;;;;;;23.60;nan;101282.22;5030003;28;20029;-81
2023/05/27 07:42:05;;;;;;;0.00;0.00;;;;;;;23.84;nan;101269.78;5014749;28;20352;-81
2023/05/27 07:44:30;;;;;;;0.00;0.00;;;;;;;24.16;nan;101269.69;5008139;28;20316;-81
2023/05/27 07:46:55;;;;;;;0.00;0.00;;;;;;;24.45;nan;101275.38;5011493;28;20073;-81
2023/05/27 07:49:22;;;;;;;0.00;0.00;;;;;;;23.91;nan;101265.16;5016825;28;20042;-82
2023/05/27 07:51:47;;;;;;;0.00;0.00;;;;;;;24.15;nan;101262.63;5022150;28;20034;-81
2023/05/27 07:54:12;;;;;;;0.00;0.00;;;;;;;24.53;nan;101264.31;5015327;28;20021;-82
2023/05/27 07:56:38;;;;;;;0.00;0.00;;;;;;;24.34;nan;101258.06;5012962;28;20057;-82
2023/05/27 07:59:03;;;;;;;0.00;0.00;;;;;;;24.41;nan;101260.66;5022825;28;20798;-82
2023/05/27 08:01:32;;;;;;;0.00;0.00;;;;;;;24.93;nan;101259.22;5015500;28;20048;-82
2023/05/27 08:03:57;;;;;;;0.00;0.00;;;;;;;25.16;nan;101258.47;5004258;28;20093;-82
2023/05/27 08:06:22;;;;;;;0.00;0.00;;;;;;;24.95;nan;101262.50;5008091;28;22168;-82
2023/05/27 08:08:47;;;;;;;0.00;0.00;;;;;;;25.58;nan;101253.06;5010680;28;20049;-82
2023/05/27 08:11:13;;;;;;;0.00;0.00;;;;;;;25.76;nan;101256.69;5027662;28;20309;-80
2023/05/27 08:13:38;;;;;;;0.00;0.00;;;;;;;26.24;nan;101258.34;5009184;28;20289;-82
2023/05/27 08:16:04;;;;;;;0.00;0.00;;;;;;;26.63;nan;101256.78;5012389;28;20045;-82
2023/05/27 08:18:34;;;;;;;0.00;0.00;;;;;;;26.68;nan;101251.44;5017124;28;21015;-81
2023/05/27 08:20:59;;;;;;;0.00;0.00;;;;;;;26.59;nan;101247.47;5022695;28;20041;-82
2023/05/27 08:23:26;;;;;;;0.00;0.00;;;;;;;26.79;nan;101255.19;5007459;28;20041;-82
2023/05/27 08:25:51;;;;;;;0.00;0.00;;;;;;;26.98;nan;101239.53;5007142;28;20044;-82
2023/05/27 08:28:16;;;;;;;0.00;0.00;;;;;;;27.66;nan;101237.69;5009637;28;20034;-82
2023/05/27 08:30:42;;;;;;;0.00;0.00;;;;;;;28.34;nan;101242.97;5018061;28;20069;-82
2023/05/27 08:33:07;;;;;;;0.00;0.00;;;;;;;27.95;nan;101232.16;5029565;28;20037;-83
2023/05/27 08:35:33;;;;;;;0.00;0.00;;;;;;;28.15;nan;101231.59;5019527;28;20034;-82
2023/05/27 08:37:58;;;;;;;0.00;0.00;;;;;;;28.41;nan;101230.00;5010486;28;20026;-82
2023/05/27 08:40:23;;;;;;;0.00;0.00;;;;;;;28.20;nan;101225.41;5012898;28;20045;-81
2023/05/27 08:42:49;;;;;;;0.00;0.00;;;;;;;28.53;nan;101225.31;5012070;28;20265;-82
2023/05/27 08:45:15;;;;;;;0.00;0.00;;;;;;;27.79;nan;101222.09;5010163;28;20042;-82
2023/05/27 08:47:41;;;;;;;0.00;0.00;;;;;;;27.79;nan;101222.09;5011522;28;20038;-82
2023/05/27 08:50:07;;;;;;;0.00;0.00;;;;;;;28.05;nan;101218.69;5019566;28;20022;-82
2023/05/27 08:52:33;;;;;;;0.00;0.00;;;;;;;28.29;nan;101219.28;5012396;28;20513;-82
2023/05/27 08:54:59;;;;;;;0.00;0.00;;;;;;;28.28;nan;101216.81;5001320;28;20117;-82
2023/05/27 08:57:29;;;;;;;0.00;0.00;;;;;;;28.12;nan;101213.06;5001166;28;20030;-82
2023/05/27 08:59:55;;;;;;;0.00;0.00;;;;;;;28.89;nan;101216.69;5013548;28;20503;-82
2023/05/27 09:02:21;;;;;;;0.00;0.00;;;;;;;28.42;nan;101207.19;5011060;28;20049;-82
2023/05/27 09:04:48;;;;;;;0.00;0.00;;;;;;;28.94;nan;101211.31;5008188;28;20034;-82
2023/05/27 09:07:13;;;;;;;0.00;0.00;;;;;;;29.77;nan;101209.00;5009805;28;20466;-82
2023/05/27 09:09:39;;;;;;;0.00;0.00;;;;;;;30.08;nan;101206.41;5013689;28;20126;-82
2023/05/27 09:12:05;;;;;;;0.00;0.00;;;;;;;29.69;nan;101209.50;5007497;28;20045;-82
2023/05/27 09:14:31;;;;;;;0.00;0.00;;;;;;;29.36;nan;101205.13;5011671;28;20050;-82
2023/05/27 09:16:57;;;;;;;0.00;0.00;;;;;;;28.48;nan;101203.47;5013789;28;20084;-81
2023/05/27 09:19:22;;;;;;;0.00;0.00;;;;;;;29.34;nan;101207.31;5013601;28;20029;-82
2023/05/27 09:21:52;;;;;;;0.00;0.00;;;;;;;29.25;nan;101197.97;5014703;28;20034;-82
2023/05/27 09:24:17;;;;;;;0.00;0.00;;;;;;;29.48;nan;101202.22;5011628;28;20066;-82
2023/05/27 09:26:43;;;;;;;0.00;0.00;;;;;;;29.30;nan;101190.66;5034452;28;20038;-82
2023/05/27 09:29:09;;;;;;;0.00;0.00;;;;;;;29.92;nan;101199.28;5012817;28;20065;-83
2023/05/27 09:31:41;;;;;;;0.00;0.00;;;;;;;30.69;nan;101198.47;5017617;28;20037;-82
2023/05/27 09:34:12;;;;;;;0.00;0.00;;;;;;;31.34;nan;101195.25;5005811;28;20030;-82
2023/05/27 09:36:41;;;;;;;;;;;;;;;31.26;nan;101193.06;5015002;28;20049;-82
2023/05/27 09:39:06;;;;;;;;;;;;;;;30.21;nan;101188.75;5014534;28;19932;-82
2023/05/27 09:41:32;;;;;;;;;;;;;;;30.54;nan;101189.44;5013068;28;19921;-83
2023/05/27 09:43:58;;;;;;;;;;;;;;;30.92;nan;101182.69;5013513;28;19921;-83
2023/05/27 09:46:24;;;;;;;;;;;;;;;31.10;nan;101178.59;5009023;28;19918;-83
2023/05/27 09:48:50;;;;;;;;;;;;;;;31.91;nan;101176.81;5013892;28;19925;-83
2023/05/27 09:51:15;;;;;;;;;;;;;;;31.71;nan;101177.72;5011245;28;20354;-83
2023/05/27 09:53:41;;;;;;;;;;;;;;;31.07;nan;101170.94;5014201;28;19986;-82
2023/05/27 09:56:06;;;;;;;0.10;0.00;;;;;;;30.94;nan;101166.88;5010218;28;19917;-82
2023/05/27 09:58:32;;;;;;;0.00;0.00;;;;;;;31.61;nan;101161.34;5013622;28;20042;-83
2023/05/27 10:00:58;;;;;;;0.00;0.00;;;;;;;30.30;nan;101157.19;5007467;28;20046;-82
2023/05/27 10:03:28;;;;;;;0.00;0.00;;;;;;;30.19;nan;101169.91;5010456;28;20057;-82
2023/05/27 10:05:55;;;;;;;;;;;;;;;30.22;nan;101172.13;5010499;28;20045;-82
2023/05/27 10:08:21;;;;;;;0.00;0.00;;;;;;;30.82;nan;101164.38;5008222;28;19929;-82
2023/05/27 10:10:46;;;;;;;0.00;0.00;;;;;;;31.16;nan;101149.38;5013107;28;20038;-83
2023/05/27 10:13:16;;;;;;;0.00;0.00;;;;;;;30.81;nan;101140.06;5012253;28;20038;-83
2023/05/27 10:15:46;;;;;;;0.00;0.00;;;;;;;31.38;nan;101147.13;5014119;28;20049;-82
2023/05/27 10:18:22;;;;;;;0.00;0.00;;;;;;;31.32;nan;101149.06;5014802;28;20044;-82
2023/05/27 10:20:49;;;;;;;0.00;0.00;;;;;;;32.12;nan;101142.03;5010784;28;20030;-83
2023/05/27 10:23:23;;;;;;;0.00;0.00;;;;;;;32.04;nan;101140.69;5011323;28;20049;-82
2023/05/27 10:26:00;;;;;;;0.00;0.00;;;;;;;32.22;nan;101138.41;5010521;28;20042;-82
2023/05/27 10:28:40;;;;;;;0.00;0.00;;;;;;;32.21;nan;101136.78;5008964;28;20056;-82
2023/05/27 10:31:06;;;;;;;0.00;0.00;;;;;;;32.93;nan;101143.41;5009511;28;20046;-82
2023/05/27 10:33:37;;;;;;;0.00;0.00;;;;;;;32.90;nan;101137.69;5010513;28;20044;-83
2023/05/27 10:36:06;;;;;;;0.00;0.00;;;;;;;33.32;nan;101141.69;5004481;28;20042;-83
2023/05/27 10:38:32;;;;;;;0.00;0.00;;;;;;;33.14;nan;101135.84;5008182;28;20403;-83
2023/05/27 10:41:00;;;;;;;0.00;0.00;;;;;;;32.07;nan;101122.91;5019154;28;20038;-82
2023/05/27 10:43:28;;;;;;;0.00;0.00;;;;;;;32.76;nan;101127.38;5007769;28;20034;-83
2023/05/27 10:46:04;;;;;;;0.00;0.00;;;;;;;32.78;nan;101124.38;5010455;28;20044;-83
2023/05/27 10:48:31;;;;;;;0.00;0.00;;;;;;;33.84;nan;101124.41;5013426;28;20038;-83
2023/05/27 10:50:58;;;;;;;0.00;0.00;;;;;;;34.47;nan;101122.47;5032486;28;20056;-83
2023/05/27 10:53:26;;;;;;;0.00;0.00;;;;;;;32.24;nan;101114.31;5014012;28;20120;-82
2023/05/27 10:55:51;;;;;;;0.00;0.00;;;;;;;33.00;nan;101119.22;5016697;28;20068;-84
2023/05/27 10:58:18;;;;;;;0.00;0.00;;;;;;;32.45;nan;101109.53;5015038;28;20026;-83
2023/05/27 11:00:46;;;;;;;0.00;0.00;;;;;;;33.55;nan;101116.22;5013908;28;20122;-83
2023/05/27 11:03:23;;;;;;;0.00;0.00;;;;;;;32.38;nan;101107.91;5001637;28;20610;-82
2023/05/27 11:06:05;;;;;;;0.00;0.00;;;;;;;33.63;nan;101107.41;5008763;28;20030;-82
2023/05/27 11:08:31;;;;;;;0.00;0.00;;;;;;;34.78;nan;101100.03;5010513;28;20128;-82
2023/05/27 11:11:02;;;;;;;0.00;0.00;;;;;;;33.98;nan;101099.00;5013779;28;20042;-82
2023/05/27 11:13:46;;;;;;;0.00;0.00;;;;;;;33.40;nan;101095.28;5002641;28;20282;-81
2023/05/27 11:16:13;;;;;;;0.00;0.00;;;;;;;33.76;nan;101092.13;5018587;28;20565;-83
2023/05/27 11:18:48;;;;;;;0.00;0.00;;;;;;;33.69;nan;101094.44;5010681;28;20034;-81
2023/05/27 11:21:18;;;;;;;0.00;0.00;;;;;;;33.24;nan;101087.53;5002342;28;20132;-81
2023/05/27 11:23:48;;;;;;;0.00;0.00;;;;;;;33.24;nan;101084.78;5010661;28;20038;-81
2023/05/27 11:26:22;;;;;;;0.00;0.00;;;;;;;33.06;nan;101081.69;5010310;28;20034;-82
2023/05/27 11:28:50;;;;;;;0.00;0.00;;;;;;;33.36;nan;101080.53;5002900;28;20045;-82
2023/05/27 11:31:16;;;;;;;0.00;0.00;;;;;;;33.93;nan;101083.41;5013535;28;20037;-82
2023/05/27 11:33:43;;;;;;;0.00;0.00;;;;;;;34.57;nan;101074.81;5018089;28;20416;-82
2023/05/27 11:36:11;;;;;;;0.00;0.00;;;;;;;34.87;nan;101073.47;5007434;28;20033;-82
2023/05/27 11:38:55;;;;;;;0.00;0.00;;;;;;;35.35;nan;101072.31;5001906;28;20041;-83
2023/05/27 11:41:28;;;;;;;0.00;0.00;;;;;;;34.43;nan;101064.56;5016549;28;20042;-83
2023/05/27 11:44:03;;;;;;;0.00;0.00;;;;;;;34.74;nan;101061.34;5008535;28;20033;-82